Strona główna
METAR-TAF:

METAR-TAF

Lotnisko :

Port lotniczy Borlänge

Borlänge, Szwecja

Szerokość geograficzna: 60-26N, Długość geograficzna: 015-31E, wysokość: 145 m

Aktualna obserwacja pogody

Raport powstał 22 minut temu, godzina 05:20 UTC
Wiatr 8 kt od zachód
Temperatura 2°C
Wilgotność 60%
Ciśnienie 1012 hPa
Widzialność 10 km lub więcej
Brak chmur poniżej 1500 m i brak chmur cumulonimbus

METAR: ESSD 090520Z 27008KT CAVOK 02/M05 Q1012

czas: 07:42 (05:42 UTC)

Prognoza

Raport powstał 12 minut temu, godzina 05:30 UTC
Prognoza ważna od 09 godzina 06 UTC do 09 godzina 15 UTC
Wiatr 8 kt od zachód
Widzialność 10 km lub więcej
Brak chmur poniżej 1500 m i brak chmur cumulonimbus
Stopniowe zmiany
od 09 godzina 06 UTC do 09 godzina 08 UTC
Wiatr 15 kt od północny zachód w porywach dochodzący do 25 kt

TAF: ESSD 090530Z 0906/0915 28008KT CAVOK BECMG 0906/0908 31015G25KT

Obserwacja i prognoza pogody dla ponad 4000 lotnisk (raport METAR i TAF).

Dostępne stacje oznaczono żółtymi i czerwonymi punktami na mapie.

Najedź kursorem aby zobaczyć nazwę stacji.

Kliknij aby zobaczyć obserwacje i prognozy pogody.

Aby zmienić mapę: kliknij na zielony przycisk z czarnym krzyżykiem, aby powiększyć; na zielony przycisk z myślnikiem, aby pomniejszyć; na zielone strzałki, aby przejść do map sąsiednich.


METAR-TAF: